sensor_id;sensor_type;location;lat;lon;timestamp;P1;durP1;ratioP1;P2;durP2;ratioP2
22219;SDS011;11279;48.364;10.904;2024-01-11T00:00:02;88.93;;;33.47;;
22219;SDS011;11279;48.364;10.904;2024-01-11T00:01:03;76.35;;;31.45;;
22219;SDS011;11279;48.364;10.904;2024-01-11T00:02:03;92.37;;;33.73;;
22219;SDS011;11279;48.364;10.904;2024-01-11T00:03:04;90.30;;;32.33;;
22219;SDS011;11279;48.364;10.904;2024-01-11T00:04:05;86.50;;;32.43;;
22219;SDS011;11279;48.364;10.904;2024-01-11T00:05:05;85.97;;;32.57;;
22219;SDS011;11279;48.364;10.904;2024-01-11T00:06:06;93.13;;;33.67;;
22219;SDS011;11279;48.364;10.904;2024-01-11T00:07:07;87.63;;;32.77;;
22219;SDS011;11279;48.364;10.904;2024-01-11T00:08:07;82.50;;;32.37;;
22219;SDS011;11279;48.364;10.904;2024-01-11T00:09:08;86.37;;;33.03;;
22219;SDS011;11279;48.364;10.904;2024-01-11T00:10:08;84.90;;;33.90;;
22219;SDS011;11279;48.364;10.904;2024-01-11T00:11:09;78.90;;;30.53;;
22219;SDS011;11279;48.364;10.904;2024-01-11T00:12:10;80.93;;;31.63;;
22219;SDS011;11279;48.364;10.904;2024-01-11T00:13:10;84.90;;;32.40;;
22219;SDS011;11279;48.364;10.904;2024-01-11T00:14:11;83.47;;;30.67;;
22219;SDS011;11279;48.364;10.904;2024-01-11T00:15:11;84.93;;;32.67;;
22219;SDS011;11279;48.364;10.904;2024-01-11T00:16:12;91.35;;;32.17;;
22219;SDS011;11279;48.364;10.904;2024-01-11T00:17:12;82.47;;;31.07;;
22219;SDS011;11279;48.364;10.904;2024-01-11T00:18:13;88.50;;;32.13;;
22219;SDS011;11279;48.364;10.904;2024-01-11T00:19:13;93.43;;;33.67;;
22219;SDS011;11279;48.364;10.904;2024-01-11T00:20:14;77.20;;;31.47;;
22219;SDS011;11279;48.364;10.904;2024-01-11T00:21:14;88.70;;;31.90;;
22219;SDS011;11279;48.364;10.904;2024-01-11T00:22:15;93.27;;;33.17;;
22219;SDS011;11279;48.364;10.904;2024-01-11T00:23:15;87.13;;;32.93;;
22219;SDS011;11279;48.364;10.904;2024-01-11T00:24:15;83.00;;;32.83;;
22219;SDS011;11279;48.364;10.904;2024-01-11T00:25:16;77.57;;;28.97;;
22219;SDS011;11279;48.364;10.904;2024-01-11T00:26:16;77.73;;;30.77;;
22219;SDS011;11279;48.364;10.904;2024-01-11T00:27:17;76.83;;;30.47;;
22219;SDS011;11279;48.364;10.904;2024-01-11T00:28:17;70.97;;;29.23;;
22219;SDS011;11279;48.364;10.904;2024-01-11T00:29:17;82.97;;;30.70;;
22219;SDS011;11279;48.364;10.904;2024-01-11T00:30:18;75.93;;;28.73;;
22219;SDS011;11279;48.364;10.904;2024-01-11T00:31:18;76.53;;;29.27;;
22219;SDS011;11279;48.364;10.904;2024-01-11T00:32:19;75.73;;;30.63;;
22219;SDS011;11279;48.364;10.904;2024-01-11T00:33:21;76.88;;;30.48;;
22219;SDS011;11279;48.364;10.904;2024-01-11T00:34:21;70.60;;;29.63;;
22219;SDS011;11279;48.364;10.904;2024-01-11T00:35:21;78.87;;;28.43;;
22219;SDS011;11279;48.364;10.904;2024-01-11T00:36:22;79.03;;;29.50;;
22219;SDS011;11279;48.364;10.904;2024-01-11T00:37:22;76.67;;;30.60;;
22219;SDS011;11279;48.364;10.904;2024-01-11T00:38:23;85.50;;;32.53;;
22219;SDS011;11279;48.364;10.904;2024-01-11T00:39:23;83.67;;;31.50;;
22219;SDS011;11279;48.364;10.904;2024-01-11T00:40:24;78.90;;;32.40;;
22219;SDS011;11279;48.364;10.904;2024-01-11T00:41:25;78.27;;;30.73;;
22219;SDS011;11279;48.364;10.904;2024-01-11T00:42:25;89.30;;;31.77;;
22219;SDS011;11279;48.364;10.904;2024-01-11T00:43:25;81.60;;;31.77;;
22219;SDS011;11279;48.364;10.904;2024-01-11T00:44:26;80.93;;;32.10;;
22219;SDS011;11279;48.364;10.904;2024-01-11T00:45:26;74.00;;;30.43;;
22219;SDS011;11279;48.364;10.904;2024-01-11T00:46:27;79.70;;;31.23;;
22219;SDS011;11279;48.364;10.904;2024-01-11T00:47:27;78.77;;;31.70;;
22219;SDS011;11279;48.364;10.904;2024-01-11T00:48:27;77.87;;;30.47;;
22219;SDS011;11279;48.364;10.904;2024-01-11T00:49:28;80.70;;;29.70;;
22219;SDS011;11279;48.364;10.904;2024-01-11T00:50:28;74.50;;;31.97;;
22219;SDS011;11279;48.364;10.904;2024-01-11T00:51:29;82.57;;;32.67;;
22219;SDS011;11279;48.364;10.904;2024-01-11T00:52:29;94.50;;;33.37;;
22219;SDS011;11279;48.364;10.904;2024-01-11T00:53:30;79.27;;;32.60;;
22219;SDS011;11279;48.364;10.904;2024-01-11T00:54:31;82.25;;;31.52;;
22219;SDS011;11279;48.364;10.904;2024-01-11T00:55:31;87.40;;;31.43;;
22219;SDS011;11279;48.364;10.904;2024-01-11T00:56:31;76.47;;;32.07;;
22219;SDS011;11279;48.364;10.904;2024-01-11T00:57:32;76.43;;;33.23;;
22219;SDS011;11279;48.364;10.904;2024-01-11T00:58:32;78.73;;;31.60;;
22219;SDS011;11279;48.364;10.904;2024-01-11T00:59:33;75.90;;;32.03;;
22219;SDS011;11279;48.364;10.904;2024-01-11T01:00:33;82.33;;;32.13;;
22219;SDS011;11279;48.364;10.904;2024-01-11T01:01:33;81.40;;;31.70;;
22219;SDS011;11279;48.364;10.904;2024-01-11T01:02:34;89.77;;;33.23;;
22219;SDS011;11279;48.364;10.904;2024-01-11T01:03:34;93.53;;;33.87;;
22219;SDS011;11279;48.364;10.904;2024-01-11T01:04:38;84.00;;;33.23;;
22219;SDS011;11279;48.364;10.904;2024-01-11T01:05:39;83.47;;;34.50;;
22219;SDS011;11279;48.364;10.904;2024-01-11T01:06:40;80.53;;;32.90;;
22219;SDS011;11279;48.364;10.904;2024-01-11T01:07:41;78.72;;;30.63;;
22219;SDS011;11279;48.364;10.904;2024-01-11T01:08:41;89.50;;;34.43;;
22219;SDS011;11279;48.364;10.904;2024-01-11T01:09:42;84.23;;;33.77;;
22219;SDS011;11279;48.364;10.904;2024-01-11T01:10:42;82.90;;;34.27;;
22219;SDS011;11279;48.364;10.904;2024-01-11T01:11:43;84.73;;;33.03;;
22219;SDS011;11279;48.364;10.904;2024-01-11T01:12:43;77.90;;;31.73;;
22219;SDS011;11279;48.364;10.904;2024-01-11T01:13:44;87.90;;;34.13;;
22219;SDS011;11279;48.364;10.904;2024-01-11T01:14:44;83.07;;;32.87;;
22219;SDS011;11279;48.364;10.904;2024-01-11T01:15:44;77.90;;;31.60;;
22219;SDS011;11279;48.364;10.904;2024-01-11T01:16:45;81.13;;;33.10;;
22219;SDS011;11279;48.364;10.904;2024-01-11T01:17:45;86.03;;;36.43;;
22219;SDS011;11279;48.364;10.904;2024-01-11T01:18:46;83.10;;;33.83;;
22219;SDS011;11279;48.364;10.904;2024-01-11T01:19:47;84.83;;;34.87;;
22219;SDS011;11279;48.364;10.904;2024-01-11T01:20:47;90.97;;;36.77;;
22219;SDS011;11279;48.364;10.904;2024-01-11T01:21:48;94.43;;;36.03;;
22219;SDS011;11279;48.364;10.904;2024-01-11T01:22:49;92.13;;;36.90;;
22219;SDS011;11279;48.364;10.904;2024-01-11T01:23:49;93.20;;;38.25;;
22219;SDS011;11279;48.364;10.904;2024-01-11T01:24:50;95.67;;;37.33;;
22219;SDS011;11279;48.364;10.904;2024-01-11T01:25:50;101.03;;;36.73;;
22219;SDS011;11279;48.364;10.904;2024-01-11T01:26:51;104.00;;;39.33;;
22219;SDS011;11279;48.364;10.904;2024-01-11T01:27:51;104.37;;;38.57;;
22219;SDS011;11279;48.364;10.904;2024-01-11T01:28:51;112.27;;;39.50;;
22219;SDS011;11279;48.364;10.904;2024-01-11T01:29:52;115.10;;;41.93;;
22219;SDS011;11279;48.364;10.904;2024-01-11T01:30:52;118.57;;;41.27;;
22219;SDS011;11279;48.364;10.904;2024-01-11T01:31:53;110.93;;;41.90;;
22219;SDS011;11279;48.364;10.904;2024-01-11T01:32:53;106.63;;;41.60;;
22219;SDS011;11279;48.364;10.904;2024-01-11T01:33:54;102.90;;;37.77;;
22219;SDS011;11279;48.364;10.904;2024-01-11T01:34:54;105.67;;;39.83;;
22219;SDS011;11279;48.364;10.904;2024-01-11T01:35:55;107.43;;;39.97;;
22219;SDS011;11279;48.364;10.904;2024-01-11T01:36:55;103.70;;;40.87;;
22219;SDS011;11279;48.364;10.904;2024-01-11T01:37:55;116.50;;;41.57;;
22219;SDS011;11279;48.364;10.904;2024-01-11T01:38:56;122.87;;;40.57;;
22219;SDS011;11279;48.364;10.904;2024-01-11T01:39:56;125.13;;;42.03;;
22219;SDS011;11279;48.364;10.904;2024-01-11T01:40:57;114.37;;;40.83;;
22219;SDS011;11279;48.364;10.904;2024-01-11T01:41:57;113.43;;;43.73;;
22219;SDS011;11279;48.364;10.904;2024-01-11T01:42:58;123.87;;;40.60;;
22219;SDS011;11279;48.364;10.904;2024-01-11T01:44:00;117.40;;;42.13;;
22219;SDS011;11279;48.364;10.904;2024-01-11T01:45:00;110.70;;;42.17;;
22219;SDS011;11279;48.364;10.904;2024-01-11T01:46:00;121.33;;;40.83;;
22219;SDS011;11279;48.364;10.904;2024-01-11T01:47:02;105.53;;;40.80;;
22219;SDS011;11279;48.364;10.904;2024-01-11T01:48:03;115.00;;;41.47;;
22219;SDS011;11279;48.364;10.904;2024-01-11T01:49:04;107.00;;;40.05;;
22219;SDS011;11279;48.364;10.904;2024-01-11T01:50:05;109.40;;;41.27;;
22219;SDS011;11279;48.364;10.904;2024-01-11T01:51:06;107.18;;;38.88;;
22219;SDS011;11279;48.364;10.904;2024-01-11T01:52:06;113.17;;;41.97;;
22219;SDS011;11279;48.364;10.904;2024-01-11T01:53:07;103.40;;;39.30;;
22219;SDS011;11279;48.364;10.904;2024-01-11T01:54:08;112.00;;;39.47;;
22219;SDS011;11279;48.364;10.904;2024-01-11T01:55:09;103.13;;;41.03;;
22219;SDS011;11279;48.364;10.904;2024-01-11T01:56:10;113.85;;;44.05;;
22219;SDS011;11279;48.364;10.904;2024-01-11T01:57:11;113.60;;;41.87;;
22219;SDS011;11279;48.364;10.904;2024-01-11T01:58:12;108.40;;;41.70;;
22219;SDS011;11279;48.364;10.904;2024-01-11T01:59:13;110.10;;;42.20;;
22219;SDS011;11279;48.364;10.904;2024-01-11T02:00:14;114.97;;;42.87;;
22219;SDS011;11279;48.364;10.904;2024-01-11T02:01:15;120.20;;;43.05;;
22219;SDS011;11279;48.364;10.904;2024-01-11T02:02:15;119.70;;;42.50;;
22219;SDS011;11279;48.364;10.904;2024-01-11T02:03:16;114.70;;;42.23;;
22219;SDS011;11279;48.364;10.904;2024-01-11T02:04:16;104.70;;;42.07;;
22219;SDS011;11279;48.364;10.904;2024-01-11T02:05:17;106.43;;;41.50;;
22219;SDS011;11279;48.364;10.904;2024-01-11T02:06:18;106.83;;;41.80;;
22219;SDS011;11279;48.364;10.904;2024-01-11T02:07:19;100.50;;;41.42;;
22219;SDS011;11279;48.364;10.904;2024-01-11T02:08:19;110.73;;;42.63;;
22219;SDS011;11279;48.364;10.904;2024-01-11T02:09:22;108.93;;;41.03;;
22219;SDS011;11279;48.364;10.904;2024-01-11T02:10:22;105.33;;;40.60;;
22219;SDS011;11279;48.364;10.904;2024-01-11T02:11:23;107.13;;;40.95;;
22219;SDS011;11279;48.364;10.904;2024-01-11T02:12:25;99.47;;;41.03;;
22219;SDS011;11279;48.364;10.904;2024-01-11T02:13:25;100.20;;;41.67;;
22219;SDS011;11279;48.364;10.904;2024-01-11T02:14:26;99.70;;;39.87;;
22219;SDS011;11279;48.364;10.904;2024-01-11T02:15:26;110.93;;;41.87;;
22219;SDS011;11279;48.364;10.904;2024-01-11T02:16:27;112.13;;;41.40;;
22219;SDS011;11279;48.364;10.904;2024-01-11T02:17:27;103.30;;;40.57;;
22219;SDS011;11279;48.364;10.904;2024-01-11T02:18:28;105.40;;;42.30;;
22219;SDS011;11279;48.364;10.904;2024-01-11T02:19:28;107.30;;;42.13;;
22219;SDS011;11279;48.364;10.904;2024-01-11T02:20:29;92.17;;;38.10;;
22219;SDS011;11279;48.364;10.904;2024-01-11T02:21:29;105.00;;;40.80;;
22219;SDS011;11279;48.364;10.904;2024-01-11T02:22:38;106.38;;;42.38;;
22219;SDS011;11279;48.364;10.904;2024-01-11T02:23:52;102.47;;;41.42;;
22219;SDS011;11279;48.364;10.904;2024-01-11T02:25:02;99.10;;;39.55;;
22219;SDS011;11279;48.364;10.904;2024-01-11T02:26:03;114.20;;;40.80;;
22219;SDS011;11279;48.364;10.904;2024-01-11T02:27:04;101.80;;;40.97;;
22219;SDS011;11279;48.364;10.904;2024-01-11T02:28:05;103.17;;;42.83;;
22219;SDS011;11279;48.364;10.904;2024-01-11T02:29:05;104.43;;;42.30;;
22219;SDS011;11279;48.364;10.904;2024-01-11T02:30:05;99.27;;;40.70;;
22219;SDS011;11279;48.364;10.904;2024-01-11T02:31:06;96.47;;;40.30;;
22219;SDS011;11279;48.364;10.904;2024-01-11T02:32:07;109.37;;;41.47;;
22219;SDS011;11279;48.364;10.904;2024-01-11T02:33:08;109.97;;;42.33;;
22219;SDS011;11279;48.364;10.904;2024-01-11T02:34:09;104.88;;;41.15;;
22219;SDS011;11279;48.364;10.904;2024-01-11T02:35:10;107.20;;;41.88;;
22219;SDS011;11279;48.364;10.904;2024-01-11T02:36:10;99.57;;;38.73;;
22219;SDS011;11279;48.364;10.904;2024-01-11T02:37:11;105.97;;;41.97;;
22219;SDS011;11279;48.364;10.904;2024-01-11T02:38:11;97.13;;;39.30;;
22219;SDS011;11279;48.364;10.904;2024-01-11T02:39:13;98.97;;;40.27;;
22219;SDS011;11279;48.364;10.904;2024-01-11T02:40:14;111.57;;;42.58;;
22219;SDS011;11279;48.364;10.904;2024-01-11T02:41:16;100.35;;;41.17;;
22219;SDS011;11279;48.364;10.904;2024-01-11T02:42:16;99.03;;;40.75;;
22219;SDS011;11279;48.364;10.904;2024-01-11T02:43:17;97.50;;;39.53;;
22219;SDS011;11279;48.364;10.904;2024-01-11T02:44:17;102.53;;;41.50;;
22219;SDS011;11279;48.364;10.904;2024-01-11T02:45:18;107.03;;;42.23;;
22219;SDS011;11279;48.364;10.904;2024-01-11T02:46:19;94.17;;;39.77;;
22219;SDS011;11279;48.364;10.904;2024-01-11T02:47:19;98.80;;;40.07;;
22219;SDS011;11279;48.364;10.904;2024-01-11T02:48:20;93.70;;;40.93;;
22219;SDS011;11279;48.364;10.904;2024-01-11T02:49:20;92.60;;;37.43;;
22219;SDS011;11279;48.364;10.904;2024-01-11T02:50:20;94.77;;;39.60;;
22219;SDS011;11279;48.364;10.904;2024-01-11T02:51:21;102.70;;;40.43;;
22219;SDS011;11279;48.364;10.904;2024-01-11T02:52:24;97.43;;;39.77;;
22219;SDS011;11279;48.364;10.904;2024-01-11T02:53:24;93.97;;;39.30;;
22219;SDS011;11279;48.364;10.904;2024-01-11T02:54:25;98.07;;;40.43;;
22219;SDS011;11279;48.364;10.904;2024-01-11T02:55:25;98.67;;;41.10;;
22219;SDS011;11279;48.364;10.904;2024-01-11T02:56:26;100.10;;;38.13;;
22219;SDS011;11279;48.364;10.904;2024-01-11T02:57:26;96.43;;;40.00;;
22219;SDS011;11279;48.364;10.904;2024-01-11T02:58:26;87.53;;;38.50;;
22219;SDS011;11279;48.364;10.904;2024-01-11T02:59:27;85.73;;;38.47;;
22219;SDS011;11279;48.364;10.904;2024-01-11T03:00:28;90.45;;;38.58;;
22219;SDS011;11279;48.364;10.904;2024-01-11T03:01:28;99.60;;;41.20;;
22219;SDS011;11279;48.364;10.904;2024-01-11T03:02:29;101.63;;;38.67;;
22219;SDS011;11279;48.364;10.904;2024-01-11T03:03:29;94.03;;;39.97;;
22219;SDS011;11279;48.364;10.904;2024-01-11T03:04:30;93.67;;;38.83;;
22219;SDS011;11279;48.364;10.904;2024-01-11T03:05:30;93.70;;;38.17;;
22219;SDS011;11279;48.364;10.904;2024-01-11T03:06:30;105.33;;;40.67;;
22219;SDS011;11279;48.364;10.904;2024-01-11T03:07:31;93.03;;;38.77;;
22219;SDS011;11279;48.364;10.904;2024-01-11T03:08:33;84.35;;;37.75;;
22219;SDS011;11279;48.364;10.904;2024-01-11T03:09:33;95.67;;;40.87;;
22219;SDS011;11279;48.364;10.904;2024-01-11T03:10:36;92.77;;;39.43;;
22219;SDS011;11279;48.364;10.904;2024-01-11T03:11:37;95.47;;;40.63;;
22219;SDS011;11279;48.364;10.904;2024-01-11T03:12:39;97.07;;;39.47;;
22219;SDS011;11279;48.364;10.904;2024-01-11T03:13:39;91.45;;;38.45;;
22219;SDS011;11279;48.364;10.904;2024-01-11T03:14:40;96.13;;;39.43;;
22219;SDS011;11279;48.364;10.904;2024-01-11T03:15:40;102.33;;;41.87;;
22219;SDS011;11279;48.364;10.904;2024-01-11T03:16:41;105.17;;;40.80;;
22219;SDS011;11279;48.364;10.904;2024-01-11T03:17:41;110.53;;;42.30;;
22219;SDS011;11279;48.364;10.904;2024-01-11T03:18:42;106.93;;;40.60;;
22219;SDS011;11279;48.364;10.904;2024-01-11T03:19:42;101.77;;;40.77;;
22219;SDS011;11279;48.364;10.904;2024-01-11T03:20:43;101.03;;;39.73;;
22219;SDS011;11279;48.364;10.904;2024-01-11T03:21:43;102.73;;;41.50;;
22219;SDS011;11279;48.364;10.904;2024-01-11T03:22:47;103.80;;;40.70;;
22219;SDS011;11279;48.364;10.904;2024-01-11T03:23:47;109.13;;;42.45;;
22219;SDS011;11279;48.364;10.904;2024-01-11T03:24:48;102.83;;;40.87;;
22219;SDS011;11279;48.364;10.904;2024-01-11T03:25:48;102.83;;;39.83;;
22219;SDS011;11279;48.364;10.904;2024-01-11T03:26:49;97.57;;;40.47;;
22219;SDS011;11279;48.364;10.904;2024-01-11T03:27:49;95.07;;;39.90;;
22219;SDS011;11279;48.364;10.904;2024-01-11T03:28:50;100.20;;;39.87;;
22219;SDS011;11279;48.364;10.904;2024-01-11T03:29:50;100.70;;;40.37;;
22219;SDS011;11279;48.364;10.904;2024-01-11T03:30:50;97.77;;;40.73;;
22219;SDS011;11279;48.364;10.904;2024-01-11T03:31:51;95.90;;;39.67;;
22219;SDS011;11279;48.364;10.904;2024-01-11T03:32:51;90.80;;;39.33;;
22219;SDS011;11279;48.364;10.904;2024-01-11T03:33:52;99.17;;;38.47;;
22219;SDS011;11279;48.364;10.904;2024-01-11T03:34:52;98.80;;;38.67;;
22219;SDS011;11279;48.364;10.904;2024-01-11T03:35:52;95.57;;;40.37;;
22219;SDS011;11279;48.364;10.904;2024-01-11T03:36:53;91.27;;;38.27;;
22219;SDS011;11279;48.364;10.904;2024-01-11T03:37:53;103.70;;;40.20;;
22219;SDS011;11279;48.364;10.904;2024-01-11T03:38:54;97.60;;;38.47;;
22219;SDS011;11279;48.364;10.904;2024-01-11T03:39:54;102.73;;;41.33;;
22219;SDS011;11279;48.364;10.904;2024-01-11T03:40:54;92.17;;;38.60;;
22219;SDS011;11279;48.364;10.904;2024-01-11T03:41:55;96.20;;;38.10;;
22219;SDS011;11279;48.364;10.904;2024-01-11T03:42:55;89.10;;;38.23;;
22219;SDS011;11279;48.364;10.904;2024-01-11T03:43:56;96.70;;;39.73;;
22219;SDS011;11279;48.364;10.904;2024-01-11T03:44:56;93.50;;;38.70;;
22219;SDS011;11279;48.364;10.904;2024-01-11T03:45:56;91.83;;;38.20;;
22219;SDS011;11279;48.364;10.904;2024-01-11T03:46:57;96.40;;;40.57;;
22219;SDS011;11279;48.364;10.904;2024-01-11T03:47:57;100.53;;;38.77;;
22219;SDS011;11279;48.364;10.904;2024-01-11T03:48:58;94.17;;;40.50;;
22219;SDS011;11279;48.364;10.904;2024-01-11T03:50:00;92.13;;;40.03;;
22219;SDS011;11279;48.364;10.904;2024-01-11T03:51:00;90.30;;;38.80;;
22219;SDS011;11279;48.364;10.904;2024-01-11T03:52:00;90.50;;;37.90;;
22219;SDS011;11279;48.364;10.904;2024-01-11T03:53:01;91.40;;;38.57;;
22219;SDS011;11279;48.364;10.904;2024-01-11T03:54:02;88.85;;;39.58;;
22219;SDS011;11279;48.364;10.904;2024-01-11T03:55:03;92.80;;;38.47;;
22219;SDS011;11279;48.364;10.904;2024-01-11T03:56:04;99.70;;;38.53;;
22219;SDS011;11279;48.364;10.904;2024-01-11T03:57:04;94.83;;;39.63;;
22219;SDS011;11279;48.364;10.904;2024-01-11T03:58:05;98.78;;;40.83;;
22219;SDS011;11279;48.364;10.904;2024-01-11T03:59:06;105.30;;;40.57;;
22219;SDS011;11279;48.364;10.904;2024-01-11T04:00:06;99.07;;;38.67;;
22219;SDS011;11279;48.364;10.904;2024-01-11T04:01:07;97.22;;;37.70;;
22219;SDS011;11279;48.364;10.904;2024-01-11T04:02:10;99.38;;;39.13;;
22219;SDS011;11279;48.364;10.904;2024-01-11T04:03:10;97.87;;;38.27;;
22219;SDS011;11279;48.364;10.904;2024-01-11T04:04:11;97.60;;;39.60;;
22219;SDS011;11279;48.364;10.904;2024-01-11T04:05:12;94.28;;;38.45;;
22219;SDS011;11279;48.364;10.904;2024-01-11T04:06:21;100.70;;;38.63;;
22219;SDS011;11279;48.364;10.904;2024-01-11T04:07:22;104.63;;;40.97;;
22219;SDS011;11279;48.364;10.904;2024-01-11T04:08:23;97.07;;;39.03;;
22219;SDS011;11279;48.364;10.904;2024-01-11T04:09:23;97.47;;;37.87;;
22219;SDS011;11279;48.364;10.904;2024-01-11T04:10:23;97.93;;;39.13;;
22219;SDS011;11279;48.364;10.904;2024-01-11T04:11:27;118.67;;;41.67;;
22219;SDS011;11279;48.364;10.904;2024-01-11T04:12:28;108.90;;;40.17;;
22219;SDS011;11279;48.364;10.904;2024-01-11T04:13:28;103.77;;;38.80;;
22219;SDS011;11279;48.364;10.904;2024-01-11T04:14:29;95.80;;;37.97;;
22219;SDS011;11279;48.364;10.904;2024-01-11T04:15:29;101.57;;;38.23;;
22219;SDS011;11279;48.364;10.904;2024-01-11T04:16:29;115.63;;;42.17;;
22219;SDS011;11279;48.364;10.904;2024-01-11T04:17:30;108.67;;;39.47;;
22219;SDS011;11279;48.364;10.904;2024-01-11T04:18:30;119.40;;;40.73;;
22219;SDS011;11279;48.364;10.904;2024-01-11T04:19:31;102.43;;;40.27;;
22219;SDS011;11279;48.364;10.904;2024-01-11T04:20:31;108.07;;;40.57;;
22219;SDS011;11279;48.364;10.904;2024-01-11T04:21:32;105.37;;;41.80;;
22219;SDS011;11279;48.364;10.904;2024-01-11T04:22:32;106.07;;;39.90;;
22219;SDS011;11279;48.364;10.904;2024-01-11T04:23:33;106.83;;;40.10;;
22219;SDS011;11279;48.364;10.904;2024-01-11T04:24:33;98.27;;;39.00;;
22219;SDS011;11279;48.364;10.904;2024-01-11T04:25:33;112.60;;;40.53;;
22219;SDS011;11279;48.364;10.904;2024-01-11T04:26:35;97.22;;;38.00;;
22219;SDS011;11279;48.364;10.904;2024-01-11T04:27:35;107.23;;;39.40;;
22219;SDS011;11279;48.364;10.904;2024-01-11T04:28:36;103.23;;;38.67;;
22219;SDS011;11279;48.364;10.904;2024-01-11T04:29:37;94.10;;;39.55;;
22219;SDS011;11279;48.364;10.904;2024-01-11T04:30:37;100.63;;;39.53;;
22219;SDS011;11279;48.364;10.904;2024-01-11T04:31:38;98.17;;;39.40;;
22219;SDS011;11279;48.364;10.904;2024-01-11T04:32:38;107.03;;;40.80;;
22219;SDS011;11279;48.364;10.904;2024-01-11T04:33:41;109.73;;;38.90;;
22219;SDS011;11279;48.364;10.904;2024-01-11T04:34:41;99.93;;;38.97;;
22219;SDS011;11279;48.364;10.904;2024-01-11T04:35:42;98.63;;;40.83;;
22219;SDS011;11279;48.364;10.904;2024-01-11T04:36:42;92.33;;;36.80;;
22219;SDS011;11279;48.364;10.904;2024-01-11T04:37:43;105.63;;;40.23;;
22219;SDS011;11279;48.364;10.904;2024-01-11T04:38:43;107.47;;;41.17;;
22219;SDS011;11279;48.364;10.904;2024-01-11T04:39:44;106.15;;;40.35;;
22219;SDS011;11279;48.364;10.904;2024-01-11T04:40:44;107.50;;;40.20;;
22219;SDS011;11279;48.364;10.904;2024-01-11T04:41:45;107.97;;;40.27;;
22219;SDS011;11279;48.364;10.904;2024-01-11T04:42:45;100.90;;;39.07;;
22219;SDS011;11279;48.364;10.904;2024-01-11T04:43:46;96.77;;;38.70;;
22219;SDS011;11279;48.364;10.904;2024-01-11T04:44:46;100.90;;;39.20;;
22219;SDS011;11279;48.364;10.904;2024-01-11T04:45:47;102.37;;;39.87;;
22219;SDS011;11279;48.364;10.904;2024-01-11T04:46:47;96.90;;;36.73;;
22219;SDS011;11279;48.364;10.904;2024-01-11T04:47:49;104.23;;;40.17;;
22219;SDS011;11279;48.364;10.904;2024-01-11T04:48:50;110.82;;;41.30;;
22219;SDS011;11279;48.364;10.904;2024-01-11T04:49:51;106.93;;;39.77;;
22219;SDS011;11279;48.364;10.904;2024-01-11T04:50:51;94.20;;;38.07;;
22219;SDS011;11279;48.364;10.904;2024-01-11T04:51:52;103.80;;;39.67;;
22219;SDS011;11279;48.364;10.904;2024-01-11T04:52:52;95.13;;;38.10;;
22219;SDS011;11279;48.364;10.904;2024-01-11T04:53:52;108.30;;;41.40;;
22219;SDS011;11279;48.364;10.904;2024-01-11T04:54:53;104.57;;;40.03;;
22219;SDS011;11279;48.364;10.904;2024-01-11T04:55:53;105.23;;;39.70;;
22219;SDS011;11279;48.364;10.904;2024-01-11T04:56:54;102.60;;;39.53;;
22219;SDS011;11279;48.364;10.904;2024-01-11T04:57:54;106.20;;;41.73;;
22219;SDS011;11279;48.364;10.904;2024-01-11T04:58:55;101.10;;;38.30;;
22219;SDS011;11279;48.364;10.904;2024-01-11T04:59:55;95.57;;;37.03;;
22219;SDS011;11279;48.364;10.904;2024-01-11T05:00:56;103.70;;;38.93;;
22219;SDS011;11279;48.364;10.904;2024-01-11T05:01:56;99.40;;;38.33;;
22219;SDS011;11279;48.364;10.904;2024-01-11T05:02:57;99.93;;;36.77;;
22219;SDS011;11279;48.364;10.904;2024-01-11T05:03:57;100.27;;;38.60;;
22219;SDS011;11279;48.364;10.904;2024-01-11T05:04:58;104.07;;;39.00;;
22219;SDS011;11279;48.364;10.904;2024-01-11T05:05:58;102.43;;;38.93;;
22219;SDS011;11279;48.364;10.904;2024-01-11T05:06:59;98.97;;;39.73;;
22219;SDS011;11279;48.364;10.904;2024-01-11T05:07:59;115.63;;;40.70;;
22219;SDS011;11279;48.364;10.904;2024-01-11T05:09:00;99.03;;;38.17;;
22219;SDS011;11279;48.364;10.904;2024-01-11T05:10:00;94.77;;;39.47;;
22219;SDS011;11279;48.364;10.904;2024-01-11T05:11:01;105.27;;;38.60;;
22219;SDS011;11279;48.364;10.904;2024-01-11T05:12:01;96.00;;;36.03;;
22219;SDS011;11279;48.364;10.904;2024-01-11T05:13:01;97.83;;;39.47;;
22219;SDS011;11279;48.364;10.904;2024-01-11T05:14:02;89.17;;;38.43;;
22219;SDS011;11279;48.364;10.904;2024-01-11T05:15:02;97.07;;;38.97;;
22219;SDS011;11279;48.364;10.904;2024-01-11T05:16:03;98.00;;;39.47;;
22219;SDS011;11279;48.364;10.904;2024-01-11T05:17:04;100.80;;;37.80;;
22219;SDS011;11279;48.364;10.904;2024-01-11T05:18:04;91.83;;;38.10;;
22219;SDS011;11279;48.364;10.904;2024-01-11T05:19:05;94.90;;;38.33;;
22219;SDS011;11279;48.364;10.904;2024-01-11T05:20:05;94.07;;;38.40;;
22219;SDS011;11279;48.364;10.904;2024-01-11T05:21:06;96.47;;;36.80;;
22219;SDS011;11279;48.364;10.904;2024-01-11T05:22:07;102.60;;;39.63;;
22219;SDS011;11279;48.364;10.904;2024-01-11T05:23:07;95.70;;;38.03;;
22219;SDS011;11279;48.364;10.904;2024-01-11T05:24:08;93.55;;;37.38;;
22219;SDS011;11279;48.364;10.904;2024-01-11T05:25:08;94.90;;;38.13;;
22219;SDS011;11279;48.364;10.904;2024-01-11T05:26:09;89.33;;;38.37;;
22219;SDS011;11279;48.364;10.904;2024-01-11T05:27:09;92.30;;;37.53;;
22219;SDS011;11279;48.364;10.904;2024-01-11T05:28:10;88.30;;;38.07;;
22219;SDS011;11279;48.364;10.904;2024-01-11T05:29:10;88.80;;;34.60;;
22219;SDS011;11279;48.364;10.904;2024-01-11T05:30:11;84.60;;;36.63;;
22219;SDS011;11279;48.364;10.904;2024-01-11T05:31:12;93.13;;;37.37;;
22219;SDS011;11279;48.364;10.904;2024-01-11T05:32:13;85.07;;;36.45;;
22219;SDS011;11279;48.364;10.904;2024-01-11T05:33:14;86.68;;;36.70;;
22219;SDS011;11279;48.364;10.904;2024-01-11T05:34:15;89.07;;;35.87;;
22219;SDS011;11279;48.364;10.904;2024-01-11T05:35:15;79.83;;;35.27;;
22219;SDS011;11279;48.364;10.904;2024-01-11T05:36:15;90.17;;;36.17;;
22219;SDS011;11279;48.364;10.904;2024-01-11T05:37:16;84.97;;;35.23;;
22219;SDS011;11279;48.364;10.904;2024-01-11T05:38:16;88.90;;;36.50;;
22219;SDS011;11279;48.364;10.904;2024-01-11T05:39:17;102.73;;;38.60;;
22219;SDS011;11279;48.364;10.904;2024-01-11T05:40:17;92.70;;;37.03;;
22219;SDS011;11279;48.364;10.904;2024-01-11T05:41:17;98.00;;;39.20;;
22219;SDS011;11279;48.364;10.904;2024-01-11T05:42:18;102.27;;;41.23;;
22219;SDS011;11279;48.364;10.904;2024-01-11T05:43:18;99.67;;;40.17;;
22219;SDS011;11279;48.364;10.904;2024-01-11T05:44:19;104.10;;;39.60;;
22219;SDS011;11279;48.364;10.904;2024-01-11T05:45:20;104.60;;;40.50;;
22219;SDS011;11279;48.364;10.904;2024-01-11T05:46:21;98.72;;;40.05;;
22219;SDS011;11279;48.364;10.904;2024-01-11T05:47:21;96.67;;;40.33;;